Time;durP1;ratioP1;P1;durP2;ratioP2;P2;SDS_P1;SDS_P2;PMS_P1;PMS_P2;Temp;Humidity;BMP_temperature;BMP_pressure;BME280_temperature;BME280_humidity;BME280_pressure;Samples;Min_cycle;Max_cycle;Signal;HPM_P1;HPM_P2
2024/03/11 00:37:33;;;;;;;14.20;7.47;;;;;;;12.94;100.00;97244.97;4944214;29;20047;-76
2024/03/11 00:40:36;;;;;;;14.93;7.00;;;;;;;12.82;100.00;97237.84;4927912;29;20098;-77
2024/03/11 00:43:13;;;;;;;16.27;8.55;;;;;;;12.82;100.00;97251.28;4934217;29;20118;-77
2024/03/11 00:45:44;;;;;;;13.13;6.68;;;;;;;12.77;100.00;97254.28;4945892;29;20038;-77
2024/03/11 00:48:11;;;;;;;16.45;8.85;;;;;;;12.73;100.00;97254.66;4937389;28;20106;-77
2024/03/11 00:51:05;;;;;;;15.68;8.07;;;;;;;12.74;100.00;97249.16;4946576;29;20051;-77
2024/03/11 00:53:31;;;;;;;14.27;7.03;;;;;;;12.69;100.00;97248.66;4963265;28;20039;-76
2024/03/11 00:56:08;;;;;;;11.45;6.60;;;;;;;12.72;100.00;97250.25;4967148;28;20027;-77
2024/03/11 00:58:42;;;;;;;18.25;8.30;;;;;;;12.73;100.00;97246.59;4958124;28;20458;-76
2024/03/11 01:01:18;;;;;;;17.35;7.72;;;;;;;12.66;100.00;97250.72;4935073;29;20123;-77
2024/03/11 01:03:59;;;;;;;14.98;7.82;;;;;;;12.74;100.00;97259.03;4963411;28;20035;-77
2024/03/11 01:06:38;;;;;;;;;;;;;;;;;;;;;
2024/03/11 01:09:06;;;;;;;12.30;6.93;;;;;;;12.69;100.00;97261.22;4964078;28;20035;-77
2024/03/11 01:11:55;;;;;;;14.50;7.75;;;;;;;12.74;100.00;97254.50;4955074;28;20094;-77
2024/03/11 01:14:46;;;;;;;12.77;6.97;;;;;;;12.76;100.00;97238.31;4970480;28;20038;-76
2024/03/11 01:17:23;;;;;;;11.05;5.43;;;;;;;12.74;100.00;97197.28;4955395;28;20035;-76
2024/03/11 01:19:53;;;;;;;13.30;7.68;;;;;;;12.76;100.00;97212.34;4964928;28;20045;-76
2024/03/11 01:22:37;;;;;;;13.80;7.05;;;;;;;12.71;100.00;97222.53;4954816;28;20050;-76
2024/03/11 01:25:10;;;;;;;15.55;8.57;;;;;;;12.54;100.00;97222.09;4944734;28;20064;-76
2024/03/11 01:27:41;;;;;;;8.93;5.22;;;;;;;12.60;100.00;97251.16;4961720;28;20467;-76
2024/03/11 01:30:14;;;;;;;15.02;6.72;;;;;;;12.66;100.00;97237.28;4955933;28;20550;-76
2024/03/11 01:32:54;;;;;;;16.02;7.40;;;;;;;12.59;100.00;97218.09;4955981;28;20019;-75
2024/03/11 01:35:30;;;;;;;14.45;7.32;;;;;;;12.61;100.00;97188.50;4970800;28;20125;-76
2024/03/11 01:38:00;;;;;;;13.35;6.68;;;;;;;12.52;100.00;97224.06;4932414;29;20050;-76
2024/03/11 01:40:28;;;;;;;15.93;8.07;;;;;;;12.37;100.00;97228.72;4954108;28;20519;-77
2024/03/11 01:42:56;;;;;;;12.40;6.57;;;;;;;12.31;100.00;97227.34;4959748;28;20034;-77
2024/03/11 01:45:25;;;;;;;21.65;8.52;;;;;;;12.33;100.00;97238.84;4961259;28;20465;-76
2024/03/11 01:47:54;;;;;;;16.92;7.40;;;;;;;12.35;100.00;97257.50;4947717;28;20031;-76
2024/03/11 01:50:45;;;;;;;12.30;6.68;;;;;;;12.37;100.00;97256.41;4955054;28;20037;-76
2024/03/11 01:53:28;;;;;;;16.27;7.22;;;;;;;12.34;100.00;97229.81;4956621;28;20055;-76
2024/03/11 01:56:03;;;;;;;12.75;6.57;;;;;;;12.30;100.00;97208.72;4934405;29;20407;-76
2024/03/11 01:58:33;;;;;;;19.40;7.72;;;;;;;12.32;100.00;97213.00;4953028;28;20042;-76
2024/03/11 02:01:07;;;;;;;16.95;7.30;;;;;;;12.43;100.00;97196.06;4941495;28;20037;-76
2024/03/11 02:03:40;;;;;;;13.07;7.88;;;;;;;12.49;100.00;97188.44;4941198;28;20118;-77
2024/03/11 02:06:11;;;;;;;16.02;7.63;;;;;;;12.52;100.00;97200.75;4952106;29;20074;-76
2024/03/11 02:08:45;;;;;;;20.55;8.38;;;;;;;12.43;100.00;97191.56;4952333;28;20030;-78
2024/03/11 02:11:43;;;;;;;17.05;9.10;;;;;;;12.39;100.00;97208.88;4971897;28;20411;-76
2024/03/11 02:14:31;;;;;;;16.08;7.55;;;;;;;12.44;100.00;97209.38;4965586;28;20081;-76
2024/03/11 02:17:08;;;;;;;16.20;7.93;;;;;;;12.54;100.00;97193.47;4961402;28;20113;-76
2024/03/11 02:19:37;;;;;;;14.35;7.97;;;;;;;12.54;100.00;97182.72;4961513;28;20033;-76
2024/03/11 02:24:59;;;;;;;16.38;7.43;;;;;;;12.52;100.00;97209.66;4941285;28;20051;-76
2024/03/11 02:27:39;;;;;;;13.20;7.25;;;;;;;12.56;100.00;97217.47;4965535;28;20059;-76
2024/03/11 02:30:11;;;;;;;14.20;6.60;;;;;;;12.58;100.00;97221.75;4945626;28;20049;-76
2024/03/11 02:32:47;;;;;;;14.85;7.50;;;;;;;12.57;100.00;97221.88;4951513;28;20058;-77
2024/03/11 02:35:36;;;;;;;18.55;8.85;;;;;;;12.60;100.00;97225.19;4959604;28;20550;-76
2024/03/11 02:38:18;;;;;;;19.48;9.23;;;;;;;12.60;100.00;97214.47;4941835;28;20478;-76
2024/03/11 02:41:00;;;;;;;;;;;;;;;;;;;;;
2024/03/11 02:43:31;;;;;;;21.70;8.02;;;;;;;12.64;100.00;97204.34;4969429;28;20035;-77
2024/03/11 02:46:03;;;;;;;16.63;8.05;;;;;;;12.67;100.00;97205.00;4944550;28;20054;-76
2024/03/11 02:48:35;;;;;;;14.63;6.88;;;;;;;12.75;100.00;97201.69;4936205;29;20031;-76
2024/03/11 02:51:03;;;;;;;10.13;5.85;;;;;;;12.80;100.00;97207.56;4939051;28;20113;-76
2024/03/11 02:53:33;;;;;;;9.82;5.85;;;;;;;12.93;100.00;97211.88;4959752;28;20043;-78
2024/03/11 02:56:08;;;;;;;11.48;5.72;;;;;;;12.91;100.00;97188.81;4968827;28;20455;-76
2024/03/11 02:58:38;;;;;;;12.75;5.38;;;;;;;13.01;100.00;97190.66;4950796;28;20114;-76
2024/03/11 03:01:13;;;;;;;14.68;7.03;;;;;;;13.02;100.00;97189.69;4970270;28;20086;-78
2024/03/11 03:03:52;;;;;;;15.82;6.53;;;;;;;13.05;100.00;97194.84;4972712;28;20033;-77
2024/03/11 03:06:26;;;;;;;13.05;6.85;;;;;;;13.00;100.00;97190.81;4941726;28;20122;-77
2024/03/11 03:09:02;;;;;;;13.68;6.60;;;;;;;13.05;100.00;97191.28;4955245;28;20043;-77
2024/03/11 03:11:31;;;;;;;10.70;6.22;;;;;;;13.00;100.00;97170.19;4944893;28;20050;-77
2024/03/11 03:13:59;;;;;;;16.33;7.32;;;;;;;13.05;100.00;97175.19;4969287;28;20121;-76
2024/03/11 03:16:41;;;;;;;13.55;6.57;;;;;;;13.01;100.00;97169.19;4956145;28;20070;-76
2024/03/11 03:19:09;;;;;;;8.75;5.28;;;;;;;13.16;100.00;97153.75;4959874;28;20058;-76
2024/03/11 03:21:47;;;;;;;10.75;6.15;;;;;;;13.21;100.00;97159.63;4963341;28;20038;-77
2024/03/11 03:24:35;;;;;;;13.38;5.78;;;;;;;13.21;100.00;97154.25;4960241;28;20417;-77
2024/03/11 03:27:03;;;;;;;12.55;7.20;;;;;;;12.79;100.00;97144.16;4957379;28;20023;-77
2024/03/11 03:29:44;;;;;;;;;;;;;;;;;;;;;
2024/03/11 03:32:22;;;;;;;13.70;7.18;;;;;;;12.53;100.00;97154.19;4968007;28;20376;-76
2024/03/11 03:34:52;;;;;;;20.13;7.97;;;;;;;12.41;100.00;97139.88;4970550;28;20470;-76
2024/03/11 03:37:22;;;;;;;14.55;7.72;;;;;;;12.37;100.00;97145.56;4970423;28;20463;-76
2024/03/11 03:40:15;;;;;;;15.65;7.18;;;;;;;12.33;100.00;97142.28;4959960;28;20097;-77
2024/03/11 03:42:46;;;;;;;17.33;7.35;;;;;;;12.34;100.00;97143.13;4959321;28;20396;-77
2024/03/11 03:45:23;;;;;;;17.80;7.32;;;;;;;12.29;100.00;97135.44;4959244;28;20126;-76
2024/03/11 03:47:56;;;;;;;14.25;7.50;;;;;;;12.23;100.00;97132.38;4947857;28;20097;-76
2024/03/11 03:50:39;;;;;;;12.38;6.95;;;;;;;12.22;100.00;97142.22;4961764;28;20498;-76
2024/03/11 03:53:12;;;;;;;13.80;7.50;;;;;;;12.17;100.00;97149.78;4941359;28;20082;-76
2024/03/11 03:55:47;;;;;;;17.52;7.82;;;;;;;12.22;100.00;97171.72;4940529;28;20031;-77
2024/03/11 03:58:19;;;;;;;15.07;7.63;;;;;;;12.25;100.00;97187.59;4959076;28;20058;-76
2024/03/11 04:00:44;;;;;;;12.55;6.75;;;;;;;12.28;100.00;97203.44;4949100;28;21239;-76
2024/03/11 04:03:20;;;;;;;14.75;6.85;;;;;;;12.55;100.00;97172.84;4962217;28;20033;-76
2024/03/11 04:06:03;;;;;;;10.57;6.25;;;;;;;12.79;100.00;97161.09;4969753;28;20076;-76
2024/03/11 04:09:07;;;;;;;11.10;5.75;;;;;;;12.93;100.00;97184.19;4959138;28;20023;-76
2024/03/11 04:11:39;;;;;;;14.38;6.00;;;;;;;12.99;100.00;97178.34;4940079;28;20031;-75
2024/03/11 04:14:32;;;;;;;9.95;6.40;;;;;;;13.01;100.00;97171.03;4970870;28;20035;-75
2024/03/11 04:17:16;;;;;;;;;;;;;;;;;;;;;
2024/03/11 04:19:48;;;;;;;11.10;6.65;;;;;;;12.97;100.00;97172.25;4962288;28;20494;-76
2024/03/11 04:22:21;;;;;;;13.90;6.50;;;;;;;12.87;100.00;97168.56;4968517;28;20027;-78
2024/03/11 04:28:08;;;;;;;17.58;6.60;;;;;;;12.74;100.00;97170.47;4945298;28;20519;-76
2024/03/11 04:30:37;;;;;;;13.23;6.10;;;;;;;12.87;100.00;97174.78;4956372;28;20113;-76
2024/03/11 04:33:10;;;;;;;11.55;5.88;;;;;;;12.94;100.00;97169.81;4962453;28;20118;-78
2024/03/11 04:35:40;;;;;;;16.38;7.32;;;;;;;12.92;100.00;97161.84;4953808;28;20039;-79
2024/03/11 04:38:17;;;;;;;15.73;7.05;;;;;;;12.91;100.00;97153.94;4964718;28;20025;-77
2024/03/11 04:40:47;;;;;;;17.23;7.32;;;;;;;12.84;100.00;97155.38;4950180;28;20466;-76
2024/03/11 04:46:17;;;;;;;17.02;8.43;;;;;;;12.76;100.00;97155.13;4964297;28;20121;-76
2024/03/11 04:48:53;;;;;;;21.52;9.98;;;;;;;12.64;100.00;97153.38;4947717;28;20035;-77
2024/03/11 04:51:38;;;;;;;22.92;9.27;;;;;;;12.62;100.00;97166.03;4965222;28;20043;-78
2024/03/11 04:54:08;;;;;;;14.07;8.43;;;;;;;12.46;100.00;97164.50;4965053;28;20076;-76
2024/03/11 04:56:41;;;;;;;17.27;8.75;;;;;;;12.40;100.00;97164.13;4964991;28;20057;-76
2024/03/11 04:59:13;;;;;;;13.30;8.00;;;;;;;12.33;100.00;97147.66;4957288;28;20103;-77
2024/03/11 05:01:38;;;;;;;13.53;7.97;;;;;;;12.33;100.00;97171.81;4953952;28;20065;-77
2024/03/11 05:04:09;;;;;;;14.40;7.85;;;;;;;12.26;100.00;97161.63;4969100;28;20058;-78
2024/03/11 05:06:53;;;;;;;16.33;9.00;;;;;;;12.24;100.00;97164.41;4960423;28;20039;-72
2024/03/11 05:09:23;;;;;;;12.00;6.45;;;;;;;12.18;100.00;97143.41;4958291;28;20107;-77
2024/03/11 05:11:51;;;;;;;8.23;4.70;;;;;;;12.10;100.00;97164.59;4957856;28;20026;-71
2024/03/11 05:14:22;;;;;;;17.33;8.05;;;;;;;12.07;100.00;97145.19;4961072;28;20121;-78
2024/03/11 05:16:57;;;;;;;16.83;8.80;;;;;;;12.04;100.00;97173.09;4959866;28;20063;-76
2024/03/11 05:19:48;;;;;;;15.95;6.88;;;;;;;12.00;100.00;97170.78;4948111;28;20049;-77
2024/03/11 05:22:20;;;;;;;18.33;6.85;;;;;;;12.02;100.00;97177.72;4966348;28;20089;-77
2024/03/11 05:24:45;;;;;;;11.70;6.13;;;;;;;11.88;100.00;97185.91;4951336;28;20050;-72
2024/03/11 05:27:35;;;;;;;13.70;7.80;;;;;;;11.88;100.00;97189.44;4958919;28;20047;-77
2024/03/11 05:30:19;;;;;;;13.40;5.22;;;;;;;11.80;100.00;97153.47;4957529;28;20039;-77
2024/03/11 05:36:14;;;;;;;17.00;8.63;;;;;;;11.74;100.00;97186.91;4958179;28;20058;-76
2024/03/11 05:38:42;;;;;;;14.73;7.20;;;;;;;11.66;100.00;97186.56;4946876;28;20047;-77
2024/03/11 05:41:09;;;;;;;14.65;7.78;;;;;;;11.78;100.00;97182.19;4969583;28;20034;-78
2024/03/11 05:43:50;;;;;;;17.88;9.43;;;;;;;11.82;100.00;97178.31;4937940;28;20035;-76
2024/03/11 05:46:20;;;;;;;16.73;8.55;;;;;;;11.91;100.00;97172.28;4963663;28;20496;-77
2024/03/11 05:49:00;;;;;;;11.68;5.97;;;;;;;11.95;100.00;97188.03;4934716;28;20035;-77
2024/03/11 05:51:37;;;;;;;13.43;6.28;;;;;;;11.94;100.00;97190.81;4958542;28;20030;-77
2024/03/11 05:54:15;;;;;;;18.48;7.85;;;;;;;11.97;100.00;97177.19;4951128;28;20045;-77
2024/03/11 05:56:53;;;;;;;16.45;8.20;;;;;;;11.99;100.00;97188.66;4963894;28;20399;-78
2024/03/11 05:59:31;;;;;;;12.57;7.82;;;;;;;12.09;100.00;97178.97;4945538;28;20042;-80
2024/03/11 06:02:02;;;;;;;12.70;6.93;;;;;;;12.14;100.00;97184.00;4969378;28;20030;-77
2024/03/11 06:04:28;;;;;;;12.93;6.88;;;;;;;12.28;100.00;97198.09;4954252;28;20526;-77
2024/03/11 06:06:56;;;;;;;15.48;6.80;;;;;;;12.34;100.00;97175.31;4938588;29;20122;-77
2024/03/11 06:09:24;;;;;;;17.08;7.13;;;;;;;12.47;100.00;97186.84;4949629;28;20046;-77
2024/03/11 06:12:02;;;;;;;42.28;17.33;;;;;;;12.50;100.00;97182.09;4948338;28;20133;-78
2024/03/11 06:14:40;;;;;;;13.35;7.53;;;;;;;12.47;100.00;97176.97;4953087;28;20426;-77
2024/03/11 06:17:22;;;;;;;18.75;8.57;;;;;;;12.46;100.00;97172.56;4961218;28;20023;-77
2024/03/11 06:20:00;;;;;;;;;;;;;;;;;;;;;
2024/03/11 06:22:35;;;;;;;16.00;7.78;;;;;;;12.57;100.00;97158.34;4957979;28;20073;-77
2024/03/11 06:25:09;;;;;;;27.80;13.02;;;;;;;12.57;100.00;97138.72;4934435;29;20519;-79
2024/03/11 06:27:39;;;;;;;25.58;12.32;;;;;;;12.62;100.00;97104.31;4930626;28;20045;-77
2024/03/11 06:30:20;;;;;;;30.10;13.00;;;;;;;12.60;100.00;97138.47;4968768;28;20477;-77
2024/03/11 06:32:59;;;;;;;27.17;11.43;;;;;;;12.55;100.00;97207.75;4933341;28;20490;-78
2024/03/11 06:35:34;;;;;;;27.25;11.90;;;;;;;12.56;100.00;97174.56;4966746;28;20510;-78
2024/03/11 06:38:10;;;;;;;22.35;11.45;;;;;;;12.65;100.00;97196.19;4949248;28;20031;-77
2024/03/11 06:40:46;;;;;;;24.33;12.18;;;;;;;12.82;100.00;97179.66;4937947;28;20047;-77
2024/03/11 06:43:14;;;;;;;32.78;13.45;;;;;;;12.91;100.00;97160.16;4950226;28;20591;-77
2024/03/11 06:49:09;;;;;;;15.52;7.72;;;;;;;13.44;100.00;97149.75;4951616;28;20073;-77
2024/03/11 06:51:37;;;;;;;12.00;6.05;;;;;;;13.71;100.00;97138.59;4949375;28;20114;-78
2024/03/11 06:54:08;;;;;;;14.52;4.70;;;;;;;14.16;100.00;97118.69;4957933;28;20141;-77
2024/03/11 06:56:38;;;;;;;9.15;4.60;;;;;;;14.41;98.61;97115.69;4946289;28;20432;-77
2024/03/11 06:59:33;;;;;;;12.02;5.57;;;;;;;14.67;97.09;97112.63;4937812;29;20027;-78
2024/03/11 07:02:06;;;;;;;41.42;15.57;;;;;;;14.81;92.76;97096.16;4933500;28;20069;-77
2024/03/11 07:04:31;;;;;;;13.23;5.07;;;;;;;14.77;94.35;97108.16;4942984;28;20027;-76
2024/03/11 07:06:59;;;;;;;19.13;9.40;;;;;;;14.69;100.00;97119.59;4949629;28;20033;-76
2024/03/11 07:09:34;;;;;;;17.20;7.30;;;;;;;14.52;100.00;97126.41;4966681;28;20134;-78
2024/03/11 07:12:03;;;;;;;17.17;8.63;;;;;;;14.41;100.00;97128.28;4967763;28;20117;-78
2024/03/11 07:14:43;;;;;;;13.27;6.82;;;;;;;14.22;100.00;97144.22;4947031;28;20030;-78
2024/03/11 07:17:15;;;;;;;16.73;7.57;;;;;;;14.25;100.00;97144.81;4928559;29;20038;-77
2024/03/11 07:19:43;;;;;;;12.82;6.03;;;;;;;14.24;100.00;97127.00;4958259;28;20400;-76
2024/03/11 07:22:19;;;;;;;14.82;5.82;;;;;;;14.34;100.00;97138.72;4959205;28;20033;-78
2024/03/11 07:24:51;;;;;;;13.40;6.95;;;;;;;14.36;100.00;97139.47;4959980;28;20030;-77
2024/03/11 07:30:13;;;;;;;8.45;4.30;;;;;;;14.53;100.00;97125.44;4967528;28;20571;-77
2024/03/11 07:32:50;;;;;;;13.45;5.18;;;;;;;14.73;98.66;97130.97;4966106;28;20114;-78
2024/03/11 07:35:27;;;;;;;14.38;5.43;;;;;;;14.73;98.76;97139.03;4955840;28;20051;-77
2024/03/11 07:38:00;;;;;;;7.72;3.83;;;;;;;14.57;100.00;97142.16;4942058;28;20042;-77
2024/03/11 07:40:28;;;;;;;10.32;3.97;;;;;;;14.62;99.75;97126.47;4959086;28;20113;-77
2024/03/11 07:43:06;;;;;;;11.50;4.93;;;;;;;15.20;95.81;97139.34;4964178;28;20035;-77
2024/03/11 07:45:38;;;;;;;27.20;4.82;;;;;;;15.66;90.28;97130.78;4972255;28;20026;-78
2024/03/11 07:48:16;;;;;;;8.93;4.65;;;;;;;15.37;93.54;97137.03;4967434;28;20026;-78
2024/03/11 07:50:44;;;;;;;13.40;5.40;;;;;;;15.48;93.10;97127.03;4960583;28;20038;-78
2024/03/11 07:53:12;;;;;;;10.18;5.40;;;;;;;15.32;90.35;97120.41;4965461;28;20092;-77
2024/03/11 07:56:12;;;;;;;11.60;5.60;;;;;;;15.26;94.69;97131.72;4954531;28;20031;-77
2024/03/11 07:58:40;;;;;;;11.65;5.38;;;;;;;15.14;95.27;97136.31;4950552;28;20035;-78
2024/03/11 08:01:31;;;;;;;8.57;4.68;;;;;;;15.13;94.98;97137.31;4952637;28;20102;-78
2024/03/11 08:04:09;;;;;;;11.90;5.45;;;;;;;15.11;97.00;97150.91;4969163;28;20195;-77
2024/03/11 08:06:39;;;;;;;9.77;5.18;;;;;;;15.04;97.22;97148.91;4942047;29;20042;-78
2024/03/11 08:09:10;;;;;;;7.85;3.92;;;;;;;14.99;97.58;97140.34;4954946;28;20454;-78
2024/03/11 08:11:46;;;;;;;;;;;;;;;;;;;;;
2024/03/11 08:14:15;;;;;;;14.32;6.20;;;;;;;15.20;96.16;97139.34;4973320;28;20031;-79
2024/03/11 08:17:20;;;;;;;11.52;6.28;;;;;;;15.26;94.87;97135.25;4956782;28;20058;-79
2024/03/11 08:19:52;;;;;;;16.42;6.10;;;;;;;15.25;96.39;97151.56;4947540;28;20133;-78
2024/03/11 08:22:26;;;;;;;9.90;4.80;;;;;;;15.37;95.00;97135.19;4963878;28;20034;-78
2024/03/11 08:24:57;;;;;;;10.98;5.13;;;;;;;15.38;94.76;97115.31;4956136;28;20049;-78
2024/03/11 08:30:17;;;;;;;10.18;5.50;;;;;;;15.27;98.77;97134.28;4949612;28;20474;-77
2024/03/11 08:32:56;;;;;;;9.80;4.10;;;;;;;15.16;99.51;97147.84;4945161;29;20038;-77
2024/03/11 08:35:24;;;;;;;10.32;5.35;;;;;;;15.12;100.00;97141.84;4949057;28;20078;-77
2024/03/11 08:37:55;;;;;;;3.85;2.85;;;;;;;15.23;100.00;97151.69;4955274;28;20550;-76
2024/03/11 08:40:26;;;;;;;11.52;6.40;;;;;;;15.26;99.41;97147.91;4963229;28;20065;-77
2024/03/11 08:43:00;;;;;;;18.80;8.90;;;;;;;15.29;99.12;97137.66;4952881;28;20578;-76
2024/03/11 08:45:33;;;;;;;8.68;4.88;;;;;;;15.40;99.88;97109.78;4959447;28;20574;-78
2024/03/11 08:47:59;;;;;;;9.45;5.10;;;;;;;15.45;100.00;97121.88;4967852;28;20055;-79
2024/03/11 08:50:28;;;;;;;8.90;4.15;;;;;;;15.40;99.80;97145.69;4966076;28;20050;-78
2024/03/11 08:52:56;;;;;;;8.27;3.97;;;;;;;15.49;99.49;97138.66;4975859;28;20056;-77
2024/03/11 08:55:26;;;;;;;16.63;3.88;;;;;;;15.56;99.11;97156.88;4973442;28;20045;-77
2024/03/11 08:57:58;;;;;;;9.25;5.13;;;;;;;15.51;99.65;97142.06;4958351;28;20042;-76
2024/03/11 09:00:38;;;;;;;11.18;5.90;;;;;;;15.61;99.73;97142.97;4970964;28;20094;-77
2024/03/11 09:03:27;;;;;;;9.85;4.35;;;;;;;15.87;97.47;97137.97;4962924;28;20038;-78
2024/03/11 09:06:02;;;;;;;13.63;5.72;;;;;;;15.97;95.28;97149.59;4965772;28;20027;-76
2024/03/11 09:08:30;;;;;;;18.73;5.97;;;;;;;16.15;96.02;97148.81;4947424;28;20029;-77
2024/03/11 09:10:58;;;;;;;9.90;4.45;;;;;;;16.14;93.14;97147.13;4955717;28;20066;-76
2024/03/11 09:13:49;;;;;;;12.75;6.32;;;;;;;16.23;90.53;97137.31;4960309;28;20118;-75
2024/03/11 09:16:29;;;;;;;13.60;4.38;;;;;;;16.38;86.25;97116.16;4954292;28;20083;-76
2024/03/11 09:18:58;;;;;;;15.57;7.07;;;;;;;16.39;86.14;97118.75;4968113;28;20478;-76
2024/03/11 09:21:31;;;;;;;21.63;9.70;;;;;;;16.42;86.10;97126.56;4943742;28;20031;-77
2024/03/11 09:24:01;;;;;;;15.60;5.50;;;;;;;16.43;87.22;97124.69;4935426;29;20042;-77
2024/03/11 09:26:43;;;;;;;11.48;4.88;;;;;;;16.35;88.72;97109.22;4938599;28;20057;-77
2024/03/11 09:29:29;;;;;;;9.77;5.47;;;;;;;16.34;88.94;97128.22;4946084;28;20022;-77
2024/03/11 09:32:37;;;;;;;10.48;4.68;;;;;;;16.49;87.46;97124.97;4967178;28;20122;-76
2024/03/11 09:35:05;;;;;;;16.08;6.25;;;;;;;16.48;88.95;97104.38;4955825;28;20039;-77
2024/03/11 09:37:44;;;;;;;8.20;3.05;;;;;;;16.48;87.16;97128.69;4971732;28;20043;-77
2024/03/11 09:40:17;;;;;;;9.10;4.47;;;;;;;16.62;87.08;97128.28;4939102;28;20071;-76
2024/03/11 09:42:54;;;;;;;14.00;5.57;;;;;;;16.74;87.43;97137.94;4936869;28;20410;-76
2024/03/11 09:45:31;;;;;;;9.05;3.60;;;;;;;16.67;85.56;97123.28;4943500;28;20034;-77
2024/03/11 09:48:08;;;;;;;11.13;4.80;;;;;;;16.96;84.61;97114.31;4964783;28;20031;-77
2024/03/11 09:50:41;;;;;;;14.77;6.10;;;;;;;17.45;81.11;97130.25;4953096;28;20035;-77
2024/03/11 09:53:18;;;;;;;9.98;5.93;;;;;;;17.50;78.93;97105.50;4952699;28;20039;-76
2024/03/11 09:55:47;;;;;;;9.55;5.60;;;;;;;17.60;78.18;97112.59;4945974;29;20189;-77
2024/03/11 09:58:36;;;;;;;9.60;5.47;;;;;;;17.91;75.87;97123.09;4961692;28;20402;-77
2024/03/11 10:01:09;;;;;;;8.18;4.03;;;;;;;17.76;74.07;97111.94;4971801;28;20027;-77
2024/03/11 10:03:41;;;;;;;10.68;5.72;;;;;;;17.82;76.21;97117.63;4966450;28;20383;-77
2024/03/11 10:06:07;;;;;;;8.13;4.00;;;;;;;18.06;72.39;97106.22;4958732;28;20031;-76
2024/03/11 10:08:49;;;;;;;9.50;4.07;;;;;;;18.29;70.43;97095.81;4971299;28;20043;-77
2024/03/11 10:12:04;;;;;;;;;;;;;;;;;;;;;
2024/03/11 10:14:34;;;;;;;7.50;3.63;;;;;;;18.72;66.22;97086.94;4971786;28;20026;-77
2024/03/11 10:17:54;;;;;;;11.45;5.63;;;;;;;18.67;67.33;97098.22;4955486;28;20482;-78
2024/03/11 10:20:25;;;;;;;8.90;5.28;;;;;;;18.66;67.70;97074.00;4969863;28;20490;-76
2024/03/11 10:22:56;;;;;;;10.35;5.55;;;;;;;18.54;67.09;97077.97;4972630;28;20589;-76
2024/03/11 10:25:34;;;;;;;10.45;4.78;;;;;;;18.42;68.22;97066.50;4958150;28;20030;-77
2024/03/11 10:28:39;;;;;;;9.82;4.55;;;;;;;18.22;69.28;97071.19;4955217;28;20118;-77
2024/03/11 10:31:23;;;;;;;12.88;5.32;;;;;;;18.29;71.36;97079.56;4951547;28;20455;-77
2024/03/11 10:34:04;;;;;;;9.68;3.72;;;;;;;18.19;70.98;97054.41;4943967;29;20058;-77
2024/03/11 10:36:33;;;;;;;7.40;4.57;;;;;;;18.30;70.01;97062.31;4936994;28;20043;-76
2024/03/11 10:39:30;;;;;;;10.15;5.35;;;;;;;18.46;69.68;97042.66;4947603;28;20145;-78
2024/03/11 10:42:09;;;;;;;9.10;3.38;;;;;;;18.44;66.61;97015.72;4957735;28;20474;-77
2024/03/11 10:44:54;;;;;;;11.45;5.35;;;;;;;18.79;65.59;97020.28;4943501;28;20038;-77
2024/03/11 10:47:23;;;;;;;5.00;3.08;;;;;;;18.95;62.45;96976.97;4964549;28;20033;-79
2024/03/11 10:49:57;;;;;;;3.72;2.50;;;;;;;18.80;60.90;97001.13;4962776;28;20030;-77
2024/03/11 10:52:25;;;;;;;11.73;4.93;;;;;;;19.08;60.18;96998.25;4943807;28;20057;-76
2024/03/11 10:54:58;;;;;;;5.43;3.15;;;;;;;19.20;58.66;96991.53;4939618;28;20035;-77
2024/03/11 10:57:53;;;;;;;8.60;4.63;;;;;;;19.36;59.07;96991.59;4955472;28;20490;-77
2024/03/11 11:00:22;;;;;;;10.38;3.55;;;;;;;19.46;58.40;96992.38;4951410;28;20066;-77
2024/03/11 11:02:59;;;;;;;7.43;3.70;;;;;;;19.70;57.84;96978.88;4954259;28;20598;-76
2024/03/11 11:05:54;;;;;;;5.60;3.35;;;;;;;20.17;56.18;96965.56;4964711;28;20028;-76
2024/03/11 11:08:29;;;;;;;14.60;4.68;;;;;;;21.01;52.86;96962.47;4964862;28;20502;-77
2024/03/11 11:11:03;;;;;;;5.82;3.13;;;;;;;21.67;50.10;96934.81;4955340;28;20039;-77
2024/03/11 11:13:50;;;;;;;10.07;3.90;;;;;;;21.78;49.06;96939.84;4943234;28;20085;-76
2024/03/11 11:16:20;;;;;;;8.35;4.43;;;;;;;21.45;49.15;96941.91;4936070;28;20070;-76
2024/03/11 11:19:11;;;;;;;8.15;3.67;;;;;;;20.76;51.43;96939.06;4953763;28;20038;-77
2024/03/11 11:21:39;;;;;;;11.93;4.85;;;;;;;20.21;53.27;96947.06;4962598;28;20070;-77
2024/03/11 11:24:33;;;;;;;8.45;4.88;;;;;;;19.92;54.00;96955.69;4962470;28;20023;-76
2024/03/11 11:27:02;;;;;;;7.57;3.35;;;;;;;19.75;53.48;96954.78;4963593;28;20031;-77
2024/03/11 11:29:31;;;;;;;9.02;3.90;;;;;;;19.48;54.34;96953.19;4950987;28;20042;-77
2024/03/11 11:32:03;;;;;;;8.10;4.35;;;;;;;19.37;55.59;96963.47;4940362;28;20121;-79
2024/03/11 11:35:01;;;;;;;;;;;;;;;19.38;55.23;96971.44;4951324;28;20102;-76
2024/03/11 11:37:39;;;;;;;13.30;5.10;;;;;;;19.34;56.06;96951.09;4899010;28;20013;-77
2024/03/11 11:40:37;;;;;;;5.90;2.38;;;;;;;19.32;56.02;96944.13;4946347;28;20078;-76
2024/03/11 11:43:22;;;;;;;10.23;4.80;;;;;;;19.15;57.36;96937.78;4937378;28;20483;-77
2024/03/11 11:45:56;;;;;;;7.22;4.03;;;;;;;19.37;56.05;96939.06;4945886;28;20023;-78
2024/03/11 11:48:57;;;;;;;13.32;4.35;;;;;;;19.37;55.71;96915.50;4949706;28;20038;-77
2024/03/11 11:51:24;;;;;;;16.13;5.05;;;;;;;19.55;56.16;96941.69;4957415;28;20042;-77
2024/03/11 11:53:53;;;;;;;7.07;3.55;;;;;;;19.68;55.33;96920.34;4961637;28;20038;-76
2024/03/11 11:56:22;;;;;;;4.95;2.35;;;;;;;19.56;55.23;96913.56;4954100;28;20034;-77
2024/03/11 11:59:05;;;;;;;26.45;12.10;;;;;;;19.96;54.55;96924.47;4951552;28;20509;-78
2024/03/11 12:01:45;;;;;;;10.70;4.03;;;;;;;20.31;53.57;96935.03;4964734;28;20113;-77
2024/03/11 12:04:41;;;;;;;12.43;4.65;;;;;;;20.77;53.05;96917.13;4946155;28;20035;-78
2024/03/11 12:07:43;;;;;;;8.02;4.32;;;;;;;20.85;52.24;96916.28;4947435;28;20038;-77
2024/03/11 12:10:14;;;;;;;10.82;4.50;;;;;;;20.14;53.71;96921.59;4969574;28;20031;-77
2024/03/11 12:13:06;;;;;;;13.65;4.60;;;;;;;19.92;54.73;96904.97;4950993;28;20046;-76
2024/03/11 12:15:37;;;;;;;20.30;5.55;;;;;;;19.54;55.76;96911.00;4951434;28;20094;-77
2024/03/11 12:18:11;;;;;;;10.07;4.70;;;;;;;19.23;59.02;96915.25;4941487;28;20045;-78
2024/03/11 12:21:06;;;;;;;8.70;5.03;;;;;;;19.26;59.53;96921.22;4947287;28;20105;-78
2024/03/11 12:23:43;;;;;;;10.23;5.28;;;;;;;19.31;60.55;96916.16;4936572;28;20093;-78
2024/03/11 12:26:29;;;;;;;10.18;5.60;;;;;;;19.39;59.42;96909.91;4943612;28;20027;-78
2024/03/11 12:29:14;;;;;;;13.02;6.40;;;;;;;19.19;62.61;96905.78;4959305;28;20066;-76
2024/03/11 12:31:55;;;;;;;13.50;5.30;;;;;;;18.86;62.78;96900.22;4940280;28;20065;-78
2024/03/11 12:34:24;;;;;;;10.27;5.73;;;;;;;18.75;65.26;96888.81;4968253;28;20060;-77
2024/03/11 12:36:55;;;;;;;16.00;6.75;;;;;;;18.63;68.08;96900.94;4961334;28;20034;-78
2024/03/11 12:42:36;;;;;;;15.52;6.47;;;;;;;18.17;73.99;96896.69;4964682;28;20101;-76
2024/03/11 12:45:03;;;;;;;14.15;6.65;;;;;;;18.19;76.43;96908.22;4935280;28;20035;-77
2024/03/11 12:47:34;;;;;;;11.98;6.32;;;;;;;18.40;74.13;96895.16;4956446;28;20043;-78
2024/03/11 12:50:29;;;;;;;8.35;4.78;;;;;;;19.04;68.98;96888.44;4938062;29;20035;-76
2024/03/11 12:53:02;;;;;;;12.55;5.68;;;;;;;19.55;64.39;96887.44;4965948;28;20125;-76
2024/03/11 12:55:29;;;;;;;16.30;6.07;;;;;;;19.72;62.56;96875.59;4938630;28;20490;-76
2024/03/11 12:58:15;;;;;;;;;;;;;;;;;;;;;
2024/03/11 13:00:47;;;;;;;11.88;6.30;;;;;;;19.86;59.68;96864.06;4961447;28;20023;-76
2024/03/11 13:03:20;;;;;;;12.20;6.03;;;;;;;19.65;59.61;96845.56;4938101;28;20035;-76
2024/03/11 13:06:04;;;;;;;10.07;5.15;;;;;;;19.28;60.69;96854.13;4973546;28;20080;-77
2024/03/11 13:08:33;;;;;;;11.88;5.40;;;;;;;18.98;62.53;96849.25;4972735;28;20057;-76
2024/03/11 13:11:15;;;;;;;12.32;6.70;;;;;;;19.16;62.91;96862.72;4942223;29;20027;-77
2024/03/11 13:14:02;;;;;;;13.98;6.10;;;;;;;19.03;62.12;96851.50;4965670;28;20149;-76
2024/03/11 13:16:33;;;;;;;8.77;4.30;;;;;;;18.93;62.40;96828.09;4953145;28;20047;-77